createdAt,value
2023-01-21T00:01:05.787Z,0.53
2023-01-21T00:03:08.730Z,0.51
2023-01-21T00:05:11.328Z,0.47
2023-01-21T00:07:13.977Z,0.44
2023-01-21T00:09:16.821Z,0.45
2023-01-21T00:11:19.931Z,0.43
2023-01-21T00:13:23.063Z,0.39
2023-01-21T00:15:25.928Z,0.37
2023-01-21T00:17:33.846Z,0.36
2023-01-21T00:19:36.894Z,0.36
2023-01-21T00:21:40.965Z,0.38
2023-01-21T00:23:45.881Z,0.39
2023-01-21T00:25:48.831Z,0.40
2023-01-21T00:28:02.296Z,0.42
2023-01-21T00:30:11.779Z,0.39
2023-01-21T00:32:15.040Z,0.38
2023-01-21T00:34:18.193Z,0.36
2023-01-21T00:36:22.274Z,0.32
2023-01-21T00:38:26.843Z,0.28
2023-01-21T00:40:29.677Z,0.27
2023-01-21T00:42:32.595Z,0.29
2023-01-21T00:44:35.810Z,0.35
2023-01-21T00:46:39.077Z,0.39
2023-01-21T00:48:41.908Z,0.41
2023-01-21T00:50:44.660Z,0.41
2023-01-21T00:52:47.462Z,0.39
2023-01-21T00:54:50.354Z,0.38
2023-01-21T00:56:53.078Z,0.40
2023-01-21T00:58:56.020Z,0.39
2023-01-21T01:01:05.074Z,0.39
2023-01-21T01:03:09.562Z,0.41
2023-01-21T01:05:12.457Z,0.44
2023-01-21T01:07:15.207Z,0.49
2023-01-21T01:09:18.387Z,0.53
2023-01-21T01:11:21.667Z,0.53
2023-01-21T01:13:24.588Z,0.46
2023-01-21T01:15:27.282Z,0.40
2023-01-21T01:17:30.019Z,0.40
2023-01-21T01:19:32.731Z,0.39
2023-01-21T01:21:35.683Z,0.36
2023-01-21T01:23:40.293Z,0.37
2023-01-21T01:25:43.197Z,0.40
2023-01-21T01:27:46.272Z,0.43
2023-01-21T01:29:49.009Z,0.42
2023-01-21T01:31:53.721Z,0.39
2023-01-21T01:33:58.038Z,0.36
2023-01-21T01:36:04.947Z,0.37
2023-01-21T01:38:09.642Z,0.36
2023-01-21T01:40:12.984Z,0.37
2023-01-21T01:42:17.422Z,0.40
2023-01-21T01:45:01.278Z,0.44
2023-01-21T01:47:10.379Z,0.48
2023-01-21T01:49:21.902Z,0.53
2023-01-21T01:51:31.066Z,0.53
2023-01-21T01:53:37.184Z,0.50
2023-01-21T01:55:42.311Z,0.50
2023-01-21T01:57:49.952Z,0.53
2023-01-21T01:59:52.735Z,0.55
2023-01-21T02:01:59.076Z,0.56
2023-01-21T02:04:06.386Z,0.52
2023-01-21T02:06:08.969Z,0.47
2023-01-21T02:08:11.784Z,0.47
2023-01-21T02:10:19.957Z,0.45
2023-01-21T02:12:23.117Z,0.40
2023-01-21T02:14:26.597Z,0.34
2023-01-21T02:16:53.429Z,0.33
2023-01-21T02:19:14.723Z,0.36
2023-01-21T02:21:44.331Z,0.38
2023-01-21T02:24:06.949Z,0.33
2023-01-21T02:26:34.408Z,0.32
2023-01-21T02:28:59.721Z,0.36
2023-01-21T02:31:16.685Z,0.40
2023-01-21T02:33:42.711Z,0.35
2023-01-21T02:36:03.841Z,0.31
2023-01-21T02:38:13.438Z,0.31
2023-01-21T02:41:10.322Z,0.30
2023-01-21T02:43:26.817Z,0.26
2023-01-21T02:45:42.355Z,0.22
2023-01-21T02:48:06.723Z,0.21
2023-01-21T02:50:32.076Z,0.22
2023-01-21T02:52:37.408Z,0.24
2023-01-21T02:54:40.157Z,0.25
2023-01-21T02:56:47.580Z,0.24
2023-01-21T02:58:56.383Z,0.23
2023-01-21T03:01:29.291Z,0.22
2023-01-21T03:04:04.189Z,0.18
2023-01-21T03:06:12.745Z,0.16
2023-01-21T03:08:25.837Z,0.16
2023-01-21T03:10:38.580Z,0.20
2023-01-21T03:12:54.696Z,0.24
2023-01-21T03:15:25.337Z,0.28
2023-01-21T03:17:59.813Z,0.31
2023-01-21T03:20:40.644Z,0.32
2023-01-21T03:22:45.090Z,0.33
2023-01-21T03:24:51.659Z,0.32
2023-01-21T03:26:57.823Z,0.32
2023-01-21T03:29:07.786Z,0.32
2023-01-21T03:31:19.256Z,0.29
2023-01-21T03:33:23.318Z,0.19
2023-01-21T03:35:32.043Z,0.10
2023-01-21T03:37:46.934Z,0.03
2023-01-21T03:40:16.260Z,-0.05
2023-01-21T03:42:19.880Z,-0.10
2023-01-21T03:44:22.859Z,-0.14
2023-01-21T03:47:00.834Z,-0.20
2023-01-21T03:49:15.730Z,-0.27
2023-01-21T03:51:31.617Z,-0.28
2023-01-21T03:53:34.635Z,-0.27
2023-01-21T03:55:38.041Z,-0.28
2023-01-21T03:57:41.846Z,-0.28
2023-01-21T03:59:44.785Z,-0.28
2023-01-21T04:01:48.412Z,-0.31
2023-01-21T04:03:51.288Z,-0.30
2023-01-21T04:05:54.064Z,-0.30
2023-01-21T04:07:56.757Z,-0.33
2023-01-21T04:09:59.644Z,-0.36
2023-01-21T04:12:04.767Z,-0.36
2023-01-21T04:14:07.430Z,-0.37
2023-01-21T04:16:10.174Z,-0.40
2023-01-21T04:18:13.645Z,-0.38
2023-01-21T04:20:18.884Z,-0.37
2023-01-21T04:22:22.122Z,-0.38
2023-01-21T04:24:26.218Z,-0.41
2023-01-21T04:26:29.908Z,-0.39
2023-01-21T04:28:32.530Z,-0.33
2023-01-21T04:30:35.474Z,-0.28
2023-01-21T04:32:38.380Z,-0.24
2023-01-21T04:34:41.797Z,-0.19
2023-01-21T04:36:44.839Z,-0.17
2023-01-21T04:38:47.731Z,-0.15
2023-01-21T04:40:50.414Z,-0.10
2023-01-21T04:42:53.132Z,-0.04
2023-01-21T04:44:56.956Z,0.02
2023-01-21T04:46:59.662Z,0.08
2023-01-21T04:49:03.567Z,0.07
2023-01-21T04:51:07.883Z,0.05
2023-01-21T04:53:10.653Z,0.06
2023-01-21T04:55:13.515Z,0.08
2023-01-21T04:57:17.895Z,0.10
2023-01-21T04:59:20.908Z,0.13
2023-01-21T05:01:24.135Z,0.15
2023-01-21T05:03:28.174Z,0.17
2023-01-21T05:05:46.274Z,0.17
2023-01-21T05:07:54.231Z,0.15
2023-01-21T05:09:57.855Z,0.14
2023-01-21T05:12:01.424Z,0.14
2023-01-21T05:14:04.329Z,0.14
2023-01-21T05:16:12.891Z,0.12
2023-01-21T05:18:18.946Z,0.10
2023-01-21T05:20:22.353Z,0.06
2023-01-21T05:22:25.661Z,0.03
2023-01-21T05:24:28.577Z,-0.01
2023-01-21T05:26:31.926Z,-0.02
2023-01-21T05:28:35.496Z,-0.02
2023-01-21T05:30:40.689Z,0.02
2023-01-21T05:32:43.979Z,0.08
2023-01-21T05:34:46.975Z,0.10
2023-01-21T05:36:50.122Z,0.12
2023-01-21T05:38:54.850Z,0.15
2023-01-21T05:41:00.186Z,0.18
2023-01-21T05:43:03.142Z,0.18
2023-01-21T05:45:07.371Z,0.18
2023-01-21T05:47:10.823Z,0.19
2023-01-21T05:49:13.508Z,0.18
2023-01-21T05:51:25.842Z,0.20
2023-01-21T05:53:30.980Z,0.21
2023-01-21T05:55:34.728Z,0.23
2023-01-21T05:57:38.275Z,0.26
2023-01-21T05:59:41.175Z,0.25
2023-01-21T06:01:44.694Z,0.27
2023-01-21T06:03:47.584Z,0.28
2023-01-21T06:05:53.604Z,0.27
2023-01-21T06:07:59.764Z,0.25
2023-01-21T06:10:06.978Z,0.26
2023-01-21T06:12:09.985Z,0.29
2023-01-21T06:14:14.314Z,0.33
2023-01-21T06:16:17.650Z,0.32
2023-01-21T06:18:20.311Z,0.28
2023-01-21T06:20:25.609Z,0.21
2023-01-21T06:22:29.510Z,0.17
2023-01-21T06:24:33.840Z,0.13
2023-01-21T06:26:36.543Z,0.11
2023-01-21T06:28:39.387Z,0.07
2023-01-21T06:30:42.357Z,0.08
2023-01-21T06:32:45.282Z,0.08
2023-01-21T06:34:48.412Z,0.09
2023-01-21T06:36:52.282Z,0.09
2023-01-21T06:38:55.679Z,0.06
2023-01-21T06:40:58.794Z,0.04
2023-01-21T06:43:03.382Z,0.02
2023-01-21T06:45:06.957Z,0.00
2023-01-21T06:47:09.945Z,-0.01
2023-01-21T06:49:13.215Z,-0.05
2023-01-21T06:51:16.013Z,-0.05
2023-01-21T06:53:18.857Z,-0.03
2023-01-21T06:55:22.505Z,-0.07
2023-01-21T06:57:25.680Z,-0.08
2023-01-21T06:59:28.486Z,-0.09
2023-01-21T07:01:32.621Z,-0.07
2023-01-21T07:03:35.984Z,-0.10
2023-01-21T07:05:39.056Z,-0.09
2023-01-21T07:07:41.774Z,-0.10
2023-01-21T07:09:44.531Z,-0.13
2023-01-21T07:11:47.487Z,-0.14
2023-01-21T07:13:50.496Z,-0.13
2023-01-21T07:15:53.209Z,-0.13
2023-01-21T07:17:56.052Z,-0.14
2023-01-21T07:19:58.753Z,-0.14
2023-01-21T07:22:01.485Z,-0.13
2023-01-21T07:24:04.326Z,-0.13
2023-01-21T07:26:07.101Z,-0.15
2023-01-21T07:28:09.766Z,-0.15
2023-01-21T07:30:18.995Z,-0.15
2023-01-21T07:32:21.929Z,-0.14
2023-01-21T07:34:24.699Z,-0.12
2023-01-21T07:36:27.968Z,-0.11
2023-01-21T07:38:39.640Z,-0.10
2023-01-21T07:40:48.809Z,-0.10
2023-01-21T07:42:53.081Z,-0.12
2023-01-21T07:45:15.720Z,-0.15
2023-01-21T07:47:18.817Z,-0.15
2023-01-21T07:49:21.721Z,-0.16
2023-01-21T07:51:24.673Z,-0.18
2023-01-21T07:53:27.622Z,-0.22
2023-01-21T07:55:34.824Z,-0.22
2023-01-21T07:57:37.575Z,-0.23
2023-01-21T07:59:41.070Z,-0.23
2023-01-21T08:01:46.696Z,-0.23
2023-01-21T08:03:49.588Z,-0.21
2023-01-21T08:05:53.523Z,-0.19
2023-01-21T08:07:57.730Z,-0.16
2023-01-21T08:10:00.505Z,-0.13
2023-01-21T08:12:05.731Z,-0.11
2023-01-21T08:14:08.558Z,-0.07
2023-01-21T08:16:14.340Z,-0.07
2023-01-21T08:18:18.428Z,-0.07
2023-01-21T08:20:21.392Z,-0.11
2023-01-21T08:22:25.998Z,-0.14
2023-01-21T08:24:28.823Z,-0.13
2023-01-21T08:26:31.632Z,-0.09
2023-01-21T08:28:34.789Z,-0.05
2023-01-21T08:30:37.588Z,-0.02
2023-01-21T08:32:40.532Z,-0.03
2023-01-21T08:34:43.322Z,-0.03
2023-01-21T08:36:46.261Z,-0.02
2023-01-21T08:38:54.448Z,0.01
2023-01-21T08:40:58.503Z,0.00
2023-01-21T08:43:02.667Z,-0.03
2023-01-21T08:45:06.453Z,-0.07
2023-01-21T08:47:09.817Z,-0.11
2023-01-21T08:49:12.654Z,-0.09
2023-01-21T08:51:15.767Z,-0.06
2023-01-21T08:53:18.909Z,-0.07
2023-01-21T08:55:26.732Z,-0.08
2023-01-21T08:57:31.434Z,-0.11
2023-01-21T08:59:34.525Z,-0.15
2023-01-21T09:01:40.855Z,-0.16
2023-01-21T09:03:43.836Z,-0.18
2023-01-21T09:05:48.069Z,-0.19
2023-01-21T09:07:52.762Z,-0.20
2023-01-21T09:09:56.479Z,-0.20
2023-01-21T09:11:59.214Z,-0.17
2023-01-21T09:14:04.356Z,-0.13
2023-01-21T09:16:16.933Z,-0.11
2023-01-21T09:18:20.501Z,-0.09
2023-01-21T09:20:24.283Z,-0.12
2023-01-21T09:22:27.590Z,-0.14
2023-01-21T09:24:30.719Z,-0.16
2023-01-21T09:26:34.049Z,-0.18
2023-01-21T09:28:42.369Z,-0.21
2023-01-21T09:30:46.319Z,-0.23
2023-01-21T09:32:53.126Z,-0.25
2023-01-21T09:34:57.640Z,-0.22
2023-01-21T09:37:00.651Z,-0.20
2023-01-21T09:39:04.021Z,-0.20
2023-01-21T09:41:29.297Z,-0.22
2023-01-21T09:43:45.305Z,-0.22
2023-01-21T09:45:52.235Z,-0.22
2023-01-21T09:47:56.831Z,-0.21
2023-01-21T09:53:00.245Z,-0.27
2023-01-21T09:55:06.992Z,-0.31
2023-01-21T09:57:37.420Z,-0.31
2023-01-21T09:59:54.588Z,-0.27
2023-01-21T10:02:01.670Z,-0.26
2023-01-21T10:04:20.700Z,-0.27
2023-01-21T10:06:39.056Z,-0.27
2023-01-21T10:09:14.512Z,-0.25
2023-01-21T10:11:46.271Z,-0.24
2023-01-21T10:14:21.258Z,-0.26
2023-01-21T10:17:02.507Z,-0.24
2023-01-21T10:19:08.278Z,-0.20
2023-01-21T10:21:21.340Z,-0.14
2023-01-21T10:23:33.091Z,-0.06
2023-01-21T10:25:38.626Z,0.03
2023-01-21T10:27:46.040Z,0.09
2023-01-21T10:29:52.770Z,0.13
2023-01-21T10:32:06.971Z,0.16
2023-01-21T10:34:17.497Z,0.19
2023-01-21T10:36:46.633Z,0.20
2023-01-21T10:39:34.598Z,0.20
2023-01-21T10:41:38.458Z,0.19
2023-01-21T10:43:53.303Z,0.20
2023-01-21T10:46:20.650Z,0.20
2023-01-21T10:48:42.615Z,0.20
2023-01-21T10:50:56.369Z,0.20
2023-01-21T10:53:44.453Z,0.18
2023-01-21T10:55:53.240Z,0.16
2023-01-21T10:58:03.668Z,0.13
2023-01-21T11:00:19.597Z,0.11
2023-01-21T11:02:34.171Z,0.11
2023-01-21T11:04:40.938Z,0.15
2023-01-21T11:06:48.229Z,0.18
2023-01-21T11:09:03.131Z,0.21
2023-01-21T11:11:08.802Z,0.19
2023-01-21T11:13:14.757Z,0.17
2023-01-21T11:15:22.614Z,0.19
2023-01-21T11:17:34.772Z,0.20
2023-01-21T11:19:38.975Z,0.23
2023-01-21T11:21:57.026Z,0.27
2023-01-21T11:24:02.851Z,0.29
2023-01-21T11:26:10.256Z,0.34
2023-01-21T11:28:27.607Z,0.38
2023-01-21T11:30:51.022Z,0.41
2023-01-21T11:33:19.304Z,0.42
2023-01-21T11:35:23.528Z,0.44
2023-01-21T11:37:29.368Z,0.48
2023-01-21T11:39:40.640Z,0.50
2023-01-21T11:41:52.104Z,0.50
2023-01-21T11:46:39.680Z,0.44
2023-01-21T11:48:44.238Z,0.43
2023-01-21T11:50:47.120Z,0.45
2023-01-21T11:53:11.594Z,0.43
2023-01-21T11:55:24.087Z,0.41
2023-01-21T11:57:30.362Z,0.42
2023-01-21T11:59:41.698Z,0.41
2023-01-21T12:02:06.303Z,0.44
2023-01-21T12:04:17.184Z,0.51
2023-01-21T12:06:31.967Z,0.56
2023-01-21T12:08:39.926Z,0.58
2023-01-21T12:10:46.247Z,0.58
2023-01-21T12:13:13.768Z,0.55
2023-01-21T12:15:31.275Z,0.54
2023-01-21T12:17:48.473Z,0.55
2023-01-21T12:20:18.444Z,0.55
2023-01-21T12:22:44.443Z,0.51
2023-01-21T12:25:25.032Z,0.49
2023-01-21T12:28:17.232Z,0.48
2023-01-21T12:30:50.521Z,0.50
2023-01-21T12:33:01.611Z,0.54
2023-01-21T12:35:12.889Z,0.57
2023-01-21T12:37:48.057Z,0.60
2023-01-21T12:39:54.870Z,0.63
2023-01-21T12:42:09.570Z,0.64
2023-01-21T12:44:38.638Z,0.65
2023-01-21T12:46:48.017Z,0.66
2023-01-21T12:48:57.130Z,0.67
2023-01-21T12:51:05.465Z,0.70
2023-01-21T12:53:29.573Z,0.72
2023-01-21T12:55:56.033Z,0.76
2023-01-21T12:58:04.193Z,0.79
2023-01-21T13:00:27.343Z,0.80
2023-01-21T13:02:47.942Z,0.82
2023-01-21T13:05:04.047Z,0.85
2023-01-21T13:07:52.719Z,0.86
2023-01-21T13:10:24.272Z,0.85
2023-01-21T13:12:32.731Z,0.83
2023-01-21T13:14:40.424Z,0.84
2023-01-21T13:16:52.608Z,0.84
2023-01-21T13:18:56.561Z,0.83
2023-01-21T13:21:22.748Z,0.82
2023-01-21T13:23:36.308Z,0.83
2023-01-21T13:25:57.846Z,0.84
2023-01-21T13:28:29.567Z,0.85
2023-01-21T13:30:38.833Z,0.85
2023-01-21T13:32:59.844Z,0.85
2023-01-21T13:35:28.312Z,0.86
2023-01-21T13:37:57.614Z,0.88
2023-01-21T13:40:29.181Z,0.91
2023-01-21T13:43:07.835Z,0.93
2023-01-21T13:45:28.028Z,0.96
2023-01-21T13:47:39.558Z,0.97
2023-01-21T13:50:04.434Z,0.98
2023-01-21T13:52:15.128Z,0.97
2023-01-21T13:54:45.706Z,0.96
2023-01-21T13:56:57.673Z,0.97
2023-01-21T13:59:15.387Z,0.94
2023-01-21T14:01:37.269Z,0.94
2023-01-21T14:03:50.303Z,0.96
2023-01-21T14:06:15.899Z,0.97
2023-01-21T14:08:28.601Z,0.97
2023-01-21T14:10:36.851Z,0.99
2023-01-21T14:12:58.346Z,1.01
2023-01-21T14:15:24.808Z,1.06
2023-01-21T14:17:49.297Z,1.05
2023-01-21T14:20:29.651Z,1.07
2023-01-21T14:22:51.558Z,1.04
2023-01-21T14:25:19.375Z,1.03
2023-01-21T14:27:28.329Z,1.02
2023-01-21T14:29:46.661Z,1.02
2023-01-21T14:32:11.649Z,1.03
2023-01-21T14:34:39.329Z,1.02
2023-01-21T14:37:12.752Z,1.03
2023-01-21T14:39:19.169Z,1.03
2023-01-21T14:41:23.828Z,1.02
2023-01-21T14:43:32.543Z,1.02
2023-01-21T14:45:56.047Z,1.03
2023-01-21T14:47:59.021Z,1.04
2023-01-21T14:50:02.112Z,1.06
2023-01-21T14:52:04.925Z,1.10
2023-01-21T14:54:15.954Z,1.15
2023-01-21T14:56:23.503Z,1.20
2023-01-21T14:58:29.146Z,1.23
2023-01-21T15:00:34.859Z,1.20
2023-01-21T15:02:49.558Z,1.22
2023-01-21T15:04:56.144Z,1.25
2023-01-21T15:07:00.535Z,1.24
2023-01-21T15:09:07.545Z,1.21
2023-01-21T15:11:26.985Z,1.23
2023-01-21T15:13:32.887Z,1.24
2023-01-21T15:16:00.071Z,1.26
2023-01-21T15:18:09.269Z,1.25
2023-01-21T15:20:46.848Z,1.21
2023-01-21T15:23:23.336Z,1.19
2023-01-21T15:25:34.355Z,1.17
2023-01-21T15:27:37.111Z,1.17
2023-01-21T15:29:42.342Z,1.16
2023-01-21T15:31:45.643Z,1.16
2023-01-21T15:33:53.254Z,1.17
2023-01-21T15:35:57.831Z,1.20
2023-01-21T15:38:12.769Z,1.23
2023-01-21T15:40:27.143Z,1.26
2023-01-21T15:42:47.815Z,1.23
2023-01-21T15:45:26.761Z,1.24
2023-01-21T15:47:38.955Z,1.24
2023-01-21T15:50:02.211Z,1.20
2023-01-21T15:52:32.696Z,1.19
2023-01-21T15:54:54.165Z,1.16
2023-01-21T15:57:24.358Z,1.13
2023-01-21T15:59:46.062Z,1.11
2023-01-21T16:02:15.475Z,1.10
2023-01-21T16:04:32.754Z,1.09
2023-01-21T16:06:41.382Z,1.10
2023-01-21T16:09:03.001Z,1.08
2023-01-21T16:11:43.931Z,1.07
2023-01-21T16:14:19.695Z,1.07
2023-01-21T16:16:48.519Z,1.09
2023-01-21T16:18:59.296Z,1.10
2023-01-21T16:21:04.428Z,1.13
2023-01-21T16:23:08.420Z,1.15
2023-01-21T16:25:16.860Z,1.17
2023-01-21T16:27:28.368Z,1.20
2023-01-21T16:29:38.529Z,1.24
2023-01-21T16:31:52.966Z,1.25
2023-01-21T16:33:56.503Z,1.26
2023-01-21T16:36:05.804Z,1.29
2023-01-21T16:38:14.347Z,1.33
2023-01-21T16:40:30.249Z,1.35
2023-01-21T16:42:40.895Z,1.36
2023-01-21T16:44:46.132Z,1.36
2023-01-21T16:46:50.796Z,1.36
2023-01-21T16:48:57.927Z,1.35
2023-01-21T16:51:04.575Z,1.33
2023-01-21T16:53:08.467Z,1.32
2023-01-21T16:55:20.128Z,1.30
2023-01-21T16:57:29.770Z,1.31
2023-01-21T16:59:42.113Z,1.29
2023-01-21T17:01:47.284Z,1.28
2023-01-21T17:03:52.938Z,1.30
2023-01-21T17:06:00.169Z,1.30
2023-01-21T17:08:10.851Z,1.32
2023-01-21T17:10:29.264Z,1.33
2023-01-21T17:12:34.615Z,1.33
2023-01-21T17:14:39.958Z,1.33
2023-01-21T17:16:43.922Z,1.33
2023-01-21T17:18:54.107Z,1.32
2023-01-21T17:21:29.216Z,1.33
2023-01-21T17:23:40.401Z,1.35
2023-01-21T17:25:44.013Z,1.37
2023-01-21T17:27:47.981Z,1.37
2023-01-21T17:29:53.986Z,1.38
2023-01-21T17:32:07.786Z,1.40
2023-01-21T17:34:17.415Z,1.39
2023-01-21T17:36:31.328Z,1.42
2023-01-21T17:38:40.295Z,1.43
2023-01-21T17:41:01.380Z,1.44
2023-01-21T17:43:21.579Z,1.44
2023-01-21T17:45:38.668Z,1.44
2023-01-21T17:48:04.889Z,1.45
2023-01-21T17:50:15.631Z,1.44
2023-01-21T17:52:20.804Z,1.43
2023-01-21T17:54:26.462Z,1.43
2023-01-21T17:56:58.219Z,1.44
2023-01-21T17:59:04.387Z,1.43
2023-01-21T18:01:08.815Z,1.43
2023-01-21T18:03:12.788Z,1.45
2023-01-21T18:05:20.424Z,1.48
2023-01-21T18:07:26.171Z,1.49
2023-01-21T18:09:34.591Z,1.52
2023-01-21T18:11:37.487Z,1.56
2023-01-21T18:13:40.696Z,1.61
2023-01-21T18:15:44.536Z,1.65
2023-01-21T18:17:56.507Z,1.65
2023-01-21T18:20:00.072Z,1.67
2023-01-21T18:22:06.145Z,1.69
2023-01-21T18:24:11.266Z,1.72
2023-01-21T18:26:25.404Z,1.76
2023-01-21T18:28:31.604Z,1.81
2023-01-21T18:30:34.480Z,1.85
2023-01-21T18:32:38.414Z,1.88
2023-01-21T18:34:42.190Z,1.90
2023-01-21T18:36:49.114Z,1.92
2023-01-21T18:38:54.991Z,1.91
2023-01-21T18:40:58.571Z,1.92
2023-01-21T18:43:02.257Z,1.93
2023-01-21T18:45:06.477Z,1.87
2023-01-21T18:47:15.715Z,1.85
2023-01-21T18:49:21.126Z,1.85
2023-01-21T18:51:26.307Z,1.86
2023-01-21T18:53:29.210Z,1.84
2023-01-21T18:55:35.799Z,1.85
2023-01-21T18:57:41.813Z,1.87
2023-01-21T18:59:45.028Z,1.89
2023-01-21T19:01:48.106Z,1.88
2023-01-21T19:03:53.947Z,1.87
2023-01-21T19:05:59.527Z,1.86
2023-01-21T19:08:11.591Z,1.85
2023-01-21T19:10:17.492Z,1.83
2023-01-21T19:12:22.909Z,1.82
2023-01-21T19:14:26.370Z,1.81
2023-01-21T19:16:31.125Z,1.80
2023-01-21T19:18:36.050Z,1.79
2023-01-21T19:20:41.938Z,1.79
2023-01-21T19:22:47.571Z,1.77
2023-01-21T19:24:51.479Z,1.74
2023-01-21T19:26:57.068Z,1.72
2023-01-21T19:29:02.709Z,1.70
2023-01-21T19:31:06.595Z,1.71
2023-01-21T19:33:10.337Z,1.72
2023-01-21T19:35:33.743Z,1.73
2023-01-21T19:37:38.469Z,1.74
2023-01-21T19:39:41.869Z,1.74
2023-01-21T19:41:45.414Z,1.71
2023-01-21T19:43:51.864Z,1.69
2023-01-21T19:45:57.943Z,1.67
2023-01-21T19:48:01.308Z,1.64
2023-01-21T19:50:07.440Z,1.61
2023-01-21T19:52:15.338Z,1.60
2023-01-21T19:54:18.000Z,1.59
2023-01-21T19:56:24.528Z,1.58
2023-01-21T19:58:30.438Z,1.58
2023-01-21T20:00:36.219Z,1.58
2023-01-21T20:02:39.166Z,1.57
2023-01-21T20:04:46.634Z,1.57
2023-01-21T20:06:50.526Z,1.59
2023-01-21T20:08:55.556Z,1.60
2023-01-21T20:10:59.110Z,1.60
2023-01-21T20:13:05.012Z,1.61
2023-01-21T20:15:08.841Z,1.60
2023-01-21T20:17:16.574Z,1.60
2023-01-21T20:19:25.260Z,1.60
2023-01-21T20:21:31.303Z,1.60
2023-01-21T20:23:36.386Z,1.60
2023-01-21T20:25:40.782Z,1.60
2023-01-21T20:27:49.947Z,1.59
2023-01-21T20:30:14.843Z,1.58
2023-01-21T20:32:18.696Z,1.56
2023-01-21T20:34:22.873Z,1.54
2023-01-21T20:36:26.928Z,1.54
2023-01-21T20:38:34.991Z,1.57
2023-01-21T20:40:39.858Z,1.59
2023-01-21T20:42:45.602Z,1.61
2023-01-21T20:44:49.332Z,1.62
2023-01-21T20:47:00.950Z,1.66
2023-01-21T20:49:04.906Z,1.67
2023-01-21T20:51:10.176Z,1.68
2023-01-21T20:53:13.814Z,1.69
2023-01-21T20:55:20.930Z,1.71
2023-01-21T20:57:27.619Z,1.74
2023-01-21T20:59:30.690Z,1.73
2023-01-21T21:01:35.766Z,1.73
2023-01-21T21:03:38.960Z,1.71
2023-01-21T21:05:42.385Z,1.71
2023-01-21T21:07:46.215Z,1.69
2023-01-21T21:09:50.223Z,1.66
2023-01-21T21:11:53.702Z,1.66
2023-01-21T21:13:56.597Z,1.68
2023-01-21T21:16:00.123Z,1.71
2023-01-21T21:18:04.402Z,1.75
2023-01-21T21:20:17.007Z,1.76
2023-01-21T21:22:23.140Z,1.75
2023-01-21T21:24:29.910Z,1.71
2023-01-21T21:26:34.816Z,1.69
2023-01-21T21:28:40.471Z,1.67
2023-01-21T21:30:44.183Z,1.65
2023-01-21T21:32:48.157Z,1.65
2023-01-21T21:34:55.052Z,1.64
2023-01-21T21:36:59.321Z,1.67
2023-01-21T21:39:02.304Z,1.65
2023-01-21T21:41:25.152Z,1.62
2023-01-21T21:43:38.902Z,1.60
2023-01-21T21:46:04.290Z,1.62
2023-01-21T21:48:41.539Z,1.63
2023-01-21T21:50:44.628Z,1.67
2023-01-21T21:52:49.366Z,1.71
2023-01-21T21:54:54.206Z,1.72
2023-01-21T21:56:57.872Z,1.71
2023-01-21T21:59:00.841Z,1.73
2023-01-21T22:01:12.342Z,1.76
2023-01-21T22:03:16.490Z,1.76
2023-01-21T22:05:19.562Z,1.78
2023-01-21T22:07:23.833Z,1.79
2023-01-21T22:09:28.543Z,1.79
2023-01-21T22:11:37.548Z,1.79
2023-01-21T22:13:43.803Z,1.78
2023-01-21T22:15:58.368Z,1.80
2023-01-21T22:18:01.879Z,1.79
2023-01-21T22:20:06.162Z,1.78
2023-01-21T22:22:10.084Z,1.77
2023-01-21T22:24:12.796Z,1.77
2023-01-21T22:26:18.925Z,1.79
2023-01-21T22:28:22.089Z,1.79
2023-01-21T22:30:25.204Z,1.77
2023-01-21T22:32:28.017Z,1.75
2023-01-21T22:34:32.376Z,1.72
2023-01-21T22:36:36.430Z,1.67
2023-01-21T22:38:40.868Z,1.66
2023-01-21T22:40:43.703Z,1.63
2023-01-21T22:42:46.838Z,1.62
2023-01-21T22:44:49.670Z,1.61
2023-01-21T22:46:52.847Z,1.61
2023-01-21T22:48:56.200Z,1.61
2023-01-21T22:51:00.310Z,1.60
2023-01-21T22:53:04.425Z,1.61
2023-01-21T22:55:08.973Z,1.63
2023-01-21T22:57:12.021Z,1.65
2023-01-21T22:59:15.167Z,1.64
2023-01-21T23:01:31.491Z,1.64
2023-01-21T23:03:34.672Z,1.64
2023-01-21T23:05:38.586Z,1.64
2023-01-21T23:07:41.341Z,1.63
2023-01-21T23:09:44.037Z,1.62
2023-01-21T23:11:46.741Z,1.62
2023-01-21T23:13:53.347Z,1.63
2023-01-21T23:15:56.350Z,1.63
2023-01-21T23:17:59.150Z,1.64
2023-01-21T23:20:02.852Z,1.63
2023-01-21T23:22:08.511Z,1.66
2023-01-21T23:24:11.645Z,1.71
2023-01-21T23:26:14.714Z,1.76
2023-01-21T23:28:18.290Z,1.82
2023-01-21T23:30:21.621Z,1.87
2023-01-21T23:32:25.860Z,1.91
2023-01-21T23:34:29.789Z,1.96
2023-01-21T23:36:33.126Z,1.99
2023-01-21T23:38:36.848Z,2.02
2023-01-21T23:40:39.674Z,2.03
2023-01-21T23:42:42.451Z,2.04
2023-01-21T23:44:46.647Z,2.06
2023-01-21T23:46:49.344Z,2.06
2023-01-21T23:48:54.436Z,2.07
2023-01-21T23:51:04.615Z,2.09
2023-01-21T23:53:09.219Z,2.09
2023-01-21T23:55:12.809Z,2.11
2023-01-21T23:57:17.653Z,2.11
2023-01-21T23:59:21.002Z,2.15
